createdAt,value
2022-09-09T00:02:06.093Z,4.43
2022-09-09T00:04:36.247Z,4.53
2022-09-09T00:07:08.464Z,4.53
2022-09-09T00:09:50.148Z,5.03
2022-09-09T00:12:23.387Z,4.13
2022-09-09T00:14:56.350Z,4.37
2022-09-09T00:17:37.404Z,4.27
2022-09-09T00:20:14.630Z,5.20
2022-09-09T00:22:49.823Z,4.57
2022-09-09T00:25:25.774Z,4.77
2022-09-09T00:27:53.770Z,4.47
2022-09-09T00:30:24.760Z,5.10
2022-09-09T00:32:59.200Z,4.63
2022-09-09T00:35:31.197Z,4.93
2022-09-09T00:38:03.687Z,4.47
2022-09-09T00:40:35.468Z,4.70
2022-09-09T00:43:31.075Z,4.70
2022-09-09T00:46:30.257Z,4.70
2022-09-09T00:49:07.606Z,4.47
2022-09-09T00:51:51.229Z,5.10
2022-09-09T00:54:34.085Z,4.93
2022-09-09T00:57:15.789Z,4.33
2022-09-09T00:59:50.201Z,5.10
2022-09-09T01:02:30.206Z,5.13
2022-09-09T01:05:07.403Z,5.17
2022-09-09T01:07:35.393Z,5.27
2022-09-09T01:10:09.138Z,5.10
2022-09-09T01:12:44.709Z,5.10
2022-09-09T01:15:17.329Z,5.50
2022-09-09T01:17:54.012Z,5.00
2022-09-09T01:20:26.576Z,5.07
2022-09-09T01:23:28.100Z,5.40
2022-09-09T01:26:17.480Z,5.40
2022-09-09T01:28:48.224Z,5.60
2022-09-09T01:31:23.849Z,5.10
2022-09-09T01:33:52.145Z,5.20
2022-09-09T01:36:28.181Z,5.27
2022-09-09T01:38:56.197Z,5.43
2022-09-09T01:41:25.599Z,5.90
2022-09-09T01:43:55.440Z,5.73
2022-09-09T01:46:24.515Z,5.97
2022-09-09T01:48:54.432Z,5.57
2022-09-09T01:51:22.516Z,5.37
2022-09-09T01:53:50.919Z,5.67
2022-09-09T01:56:32.312Z,5.13
2022-09-09T01:59:09.820Z,5.57
2022-09-09T02:01:49.228Z,5.63
2022-09-09T02:04:34.573Z,5.70
2022-09-09T02:07:02.647Z,5.73
2022-09-09T02:09:32.681Z,6.13
2022-09-09T02:12:08.206Z,5.50
2022-09-09T02:14:41.356Z,5.13
2022-09-09T02:17:12.110Z,5.60
2022-09-09T02:19:47.046Z,5.10
2022-09-09T02:22:15.512Z,5.37
2022-09-09T02:24:43.703Z,5.77
2022-09-09T02:27:14.139Z,6.10
2022-09-09T02:29:45.471Z,5.57
2022-09-09T02:32:17.082Z,5.73
2022-09-09T02:34:48.898Z,6.03
2022-09-09T02:37:20.657Z,5.97
2022-09-09T02:39:49.150Z,6.03
2022-09-09T02:42:18.715Z,5.50
2022-09-09T02:44:47.684Z,5.53
2022-09-09T02:47:37.663Z,5.90
2022-09-09T02:50:14.900Z,5.53
2022-09-09T02:52:57.235Z,6.00
2022-09-09T02:55:39.859Z,6.10
2022-09-09T02:58:12.496Z,6.03
2022-09-09T03:00:41.911Z,6.27
2022-09-09T03:03:11.208Z,5.93
2022-09-09T03:05:39.702Z,7.07
2022-09-09T03:08:07.823Z,6.17
2022-09-09T03:10:36.523Z,6.33
2022-09-09T03:13:05.303Z,7.00
2022-09-09T03:15:35.839Z,7.43
2022-09-09T03:18:04.335Z,6.40
2022-09-09T03:20:32.680Z,6.80
2022-09-09T03:23:02.544Z,7.03
2022-09-09T03:25:30.999Z,7.33
2022-09-09T03:27:59.207Z,7.13
2022-09-09T03:30:28.928Z,6.40
2022-09-09T03:32:58.817Z,7.60
2022-09-09T03:35:26.920Z,8.10
2022-09-09T03:37:56.375Z,7.70
2022-09-09T03:40:24.680Z,8.00
2022-09-09T03:42:52.707Z,8.37
2022-09-09T03:45:20.924Z,8.27
2022-09-09T03:47:48.916Z,8.60
2022-09-09T03:50:19.490Z,7.87
2022-09-09T03:52:48.372Z,8.33
2022-09-09T03:55:16.502Z,8.50
2022-09-09T03:57:44.526Z,9.27
2022-09-09T04:00:13.391Z,9.33
2022-09-09T04:02:41.498Z,8.47
2022-09-09T04:05:10.315Z,8.80
2022-09-09T04:07:39.730Z,8.60
2022-09-09T04:10:09.473Z,9.10
2022-09-09T04:12:37.426Z,8.20
2022-09-09T04:15:06.011Z,9.63
2022-09-09T04:17:34.160Z,8.63
2022-09-09T04:20:03.658Z,8.13
2022-09-09T04:22:31.740Z,8.07
2022-09-09T04:25:01.385Z,8.37
2022-09-09T04:27:30.139Z,8.23
2022-09-09T04:29:58.360Z,7.60
2022-09-09T04:32:28.186Z,7.70
2022-09-09T04:34:56.157Z,8.80
2022-09-09T04:37:25.854Z,7.77
2022-09-09T04:39:54.015Z,8.23
2022-09-09T04:42:23.866Z,8.17
2022-09-09T04:44:51.783Z,7.83
2022-09-09T04:47:19.794Z,8.47
2022-09-09T04:49:48.469Z,7.60
2022-09-09T04:52:18.268Z,7.60
2022-09-09T04:54:46.985Z,7.27
2022-09-09T04:57:18.661Z,7.17
2022-09-09T04:59:49.133Z,8.20
2022-09-09T05:02:17.424Z,8.00
2022-09-09T05:04:45.489Z,7.03
2022-09-09T05:07:15.017Z,8.03
2022-09-09T05:09:43.659Z,7.50
2022-09-09T05:12:12.103Z,8.47
2022-09-09T05:14:40.085Z,8.40
2022-09-09T05:17:09.415Z,8.17
2022-09-09T05:19:37.411Z,9.43
2022-09-09T05:22:05.966Z,8.13
2022-09-09T05:24:34.502Z,9.23
2022-09-09T05:27:03.509Z,8.57
2022-09-09T05:29:34.428Z,9.57
2022-09-09T05:32:02.899Z,9.57
2022-09-09T05:34:32.371Z,9.57
2022-09-09T05:37:00.421Z,9.17
2022-09-09T05:39:28.412Z,10.93
2022-09-09T05:41:56.571Z,10.63
2022-09-09T05:44:28.503Z,10.17
2022-09-09T05:46:56.711Z,9.83
2022-09-09T05:49:25.059Z,10.90
2022-09-09T05:51:54.747Z,9.83
2022-09-09T05:54:22.907Z,10.33
2022-09-09T05:56:52.322Z,11.20
2022-09-09T05:59:20.559Z,10.70
2022-09-09T06:01:48.788Z,10.83
2022-09-09T06:04:17.179Z,11.33
2022-09-09T06:06:45.130Z,11.40
2022-09-09T06:09:14.578Z,11.40
2022-09-09T06:11:42.659Z,11.60
2022-09-09T06:14:11.330Z,12.77
2022-09-09T06:16:39.755Z,13.10
2022-09-09T06:19:07.875Z,13.33
2022-09-09T06:21:38.193Z,14.50
2022-09-09T06:24:08.355Z,15.37
2022-09-09T06:26:40.122Z,14.70
2022-09-09T06:29:08.204Z,15.30
2022-09-09T06:31:38.579Z,14.67
2022-09-09T06:34:08.477Z,13.47
2022-09-09T06:36:37.894Z,14.80
2022-09-09T06:39:08.762Z,15.67
2022-09-09T06:41:40.390Z,14.47
2022-09-09T06:44:08.424Z,13.77
2022-09-09T06:46:36.794Z,14.40
2022-09-09T06:49:05.122Z,14.37
2022-09-09T06:51:35.619Z,15.17
2022-09-09T06:54:05.002Z,14.93
2022-09-09T06:56:35.066Z,15.87
2022-09-09T06:59:06.860Z,16.50
2022-09-09T07:01:37.143Z,16.60
2022-09-09T07:04:08.715Z,16.30
2022-09-09T07:06:39.825Z,16.90
2022-09-09T07:09:10.229Z,16.67
2022-09-09T07:11:40.930Z,17.77
2022-09-09T07:14:13.437Z,17.50
2022-09-09T07:16:41.673Z,18.07
2022-09-09T07:19:09.954Z,18.07
2022-09-09T07:21:37.925Z,17.40
2022-09-09T07:24:08.391Z,17.70
2022-09-09T07:26:37.038Z,18.47
2022-09-09T07:29:05.230Z,19.10
2022-09-09T07:31:36.329Z,19.10
2022-09-09T07:34:05.554Z,18.50
2022-09-09T07:36:34.893Z,19.10
2022-09-09T07:39:04.365Z,19.03
2022-09-09T07:41:35.321Z,18.83
2022-09-09T07:44:07.643Z,18.93
2022-09-09T07:46:38.059Z,18.80
2022-09-09T07:49:06.132Z,18.73
2022-09-09T07:51:36.133Z,19.30
2022-09-09T07:54:06.428Z,20.37
2022-09-09T07:56:35.316Z,18.17
2022-09-09T07:59:05.267Z,18.20
2022-09-09T08:01:40.009Z,19.27
2022-09-09T08:04:09.712Z,19.43
2022-09-09T08:06:40.369Z,18.53
2022-09-09T08:09:10.524Z,17.93
2022-09-09T08:11:39.539Z,18.00
2022-09-09T08:14:09.701Z,18.70
2022-09-09T08:16:41.408Z,19.27
2022-09-09T08:19:09.862Z,19.83
2022-09-09T08:21:40.991Z,19.03
2022-09-09T08:24:11.431Z,19.17
2022-09-09T08:26:42.496Z,19.60
2022-09-09T08:29:12.623Z,19.33
2022-09-09T08:31:43.582Z,19.07
2022-09-09T08:34:11.628Z,20.20
2022-09-09T08:36:43.393Z,20.43
2022-09-09T08:39:12.746Z,21.53
2022-09-09T08:42:01.740Z,20.77
2022-09-09T08:44:46.826Z,22.80
2022-09-09T08:47:25.002Z,21.83
2022-09-09T08:50:18.438Z,23.63
2022-09-09T08:52:54.594Z,21.73
2022-09-09T08:55:34.292Z,23.37
2022-09-09T08:58:11.934Z,22.40
2022-09-09T09:00:49.469Z,23.33
2022-09-09T09:03:27.963Z,23.53
2022-09-09T09:06:04.066Z,22.27
2022-09-09T09:08:39.941Z,23.00
2022-09-09T09:11:07.986Z,23.43
2022-09-09T09:13:43.985Z,22.53
2022-09-09T09:16:21.628Z,20.90
2022-09-09T09:18:52.143Z,20.80
2022-09-09T09:21:27.738Z,22.20
2022-09-09T09:23:59.177Z,21.23
2022-09-09T09:26:32.620Z,23.77
2022-09-09T09:29:04.061Z,22.17
2022-09-09T09:31:32.659Z,19.90
2022-09-09T09:34:03.500Z,22.00
2022-09-09T09:36:41.029Z,20.07
2022-09-09T09:42:06.410Z,21.77
2022-09-09T09:44:38.270Z,20.60
2022-09-09T09:47:13.472Z,18.77
2022-09-09T09:49:54.075Z,19.60
2022-09-09T09:52:25.913Z,20.93
2022-09-09T09:54:55.288Z,19.47
2022-09-09T09:57:30.104Z,19.40
2022-09-09T10:00:14.502Z,18.63
2022-09-09T10:02:45.072Z,19.63
2022-09-09T10:05:22.015Z,19.40
2022-09-09T10:08:05.115Z,19.30
2022-09-09T10:10:48.111Z,18.57
2022-09-09T10:13:22.188Z,18.97
2022-09-09T10:15:59.458Z,18.67
2022-09-09T10:18:44.020Z,18.27
2022-09-09T10:21:32.479Z,18.37
2022-09-09T10:24:27.675Z,20.60
2022-09-09T10:27:01.131Z,19.57
2022-09-09T10:29:45.424Z,19.97
2022-09-09T10:32:38.239Z,17.43
2022-09-09T10:35:24.879Z,18.83
2022-09-09T10:38:15.975Z,18.47
2022-09-09T10:40:52.468Z,17.67
2022-09-09T10:43:38.040Z,18.03
2022-09-09T10:46:11.922Z,16.97
2022-09-09T10:48:55.544Z,16.57
2022-09-09T10:51:35.688Z,17.20
2022-09-09T10:54:22.306Z,17.20
2022-09-09T10:56:57.653Z,17.93
2022-09-09T10:59:31.214Z,16.90
2022-09-09T11:02:04.700Z,16.23
2022-09-09T11:04:37.567Z,16.07
2022-09-09T11:07:12.133Z,15.43
2022-09-09T11:09:47.366Z,15.50
2022-09-09T11:12:21.274Z,14.77
2022-09-09T11:14:53.539Z,14.47
2022-09-09T11:17:26.195Z,14.30
2022-09-09T11:19:54.855Z,14.13
2022-09-09T11:22:30.426Z,13.07
2022-09-09T11:25:03.452Z,13.13
2022-09-09T11:27:38.325Z,12.97
2022-09-09T11:30:38.037Z,12.93
2022-09-09T11:33:39.721Z,11.90
2022-09-09T11:36:37.803Z,12.77
2022-09-09T11:39:25.940Z,11.40
2022-09-09T11:41:55.418Z,11.33
2022-09-09T11:44:30.432Z,11.52
2022-09-09T11:46:58.574Z,11.53
2022-09-09T11:49:30.170Z,10.35
2022-09-09T11:51:58.122Z,9.43
2022-09-09T11:54:33.497Z,8.93
2022-09-09T11:57:05.784Z,8.07
2022-09-09T11:59:35.134Z,8.55
2022-09-09T12:02:04.981Z,9.25
2022-09-09T12:04:37.784Z,10.75
2022-09-09T12:07:23.606Z,9.90
2022-09-09T12:09:57.477Z,7.88
2022-09-09T12:12:33.779Z,8.38
2022-09-09T12:15:34.480Z,9.73
2022-09-09T12:18:03.858Z,10.88
2022-09-09T12:20:37.795Z,10.82
2022-09-09T12:23:24.387Z,11.07
2022-09-09T12:26:23.854Z,10.77
2022-09-09T12:29:05.609Z,10.75
2022-09-09T12:31:39.084Z,10.90
2022-09-09T12:34:19.272Z,10.82
2022-09-09T12:36:54.126Z,10.45
2022-09-09T12:39:31.060Z,11.82
2022-09-09T12:41:59.466Z,11.60
2022-09-09T12:44:30.075Z,11.68
2022-09-09T12:47:01.341Z,10.75
2022-09-09T12:49:35.287Z,11.20
2022-09-09T12:52:06.907Z,11.15
2022-09-09T12:54:37.279Z,11.75
2022-09-09T12:57:08.647Z,11.30
2022-09-09T12:59:42.959Z,10.88
2022-09-09T13:02:23.206Z,10.98
2022-09-09T13:04:52.561Z,10.60
2022-09-09T13:07:21.340Z,9.98
2022-09-09T13:09:50.489Z,9.60
2022-09-09T13:12:21.758Z,9.82
2022-09-09T13:14:54.981Z,8.85
2022-09-09T13:17:25.123Z,9.13
2022-09-09T13:19:54.723Z,8.55
2022-09-09T13:22:33.935Z,9.60
2022-09-09T13:25:05.075Z,9.05
2022-09-09T13:27:35.544Z,8.80
2022-09-09T13:30:24.876Z,9.35
2022-09-09T13:33:18.322Z,9.35
2022-09-09T13:35:50.406Z,8.05
2022-09-09T13:38:19.078Z,9.10
2022-09-09T13:40:58.668Z,9.68
2022-09-09T13:43:27.883Z,8.70
2022-09-09T13:45:59.998Z,8.57
2022-09-09T13:48:28.330Z,8.75
2022-09-09T13:50:58.357Z,8.95
2022-09-09T13:53:26.531Z,9.25
2022-09-09T13:55:55.199Z,8.93
2022-09-09T13:58:23.843Z,9.05
2022-09-09T14:00:52.035Z,9.15
2022-09-09T14:03:21.910Z,9.18
2022-09-09T14:05:50.248Z,9.75
2022-09-09T14:08:24.665Z,9.35
2022-09-09T14:10:53.246Z,9.68
2022-09-09T14:13:22.113Z,9.35
2022-09-09T14:15:51.829Z,8.95
2022-09-09T14:18:21.521Z,8.70
2022-09-09T14:20:49.558Z,8.93
2022-09-09T14:23:18.126Z,8.93
2022-09-09T14:25:46.222Z,8.35
2022-09-09T14:28:15.304Z,8.77
2022-09-09T14:30:45.341Z,7.90
2022-09-09T14:33:15.589Z,8.38
2022-09-09T14:35:45.217Z,8.30
2022-09-09T14:38:18.312Z,7.95
2022-09-09T14:40:48.742Z,8.43
2022-09-09T14:43:16.697Z,7.60
2022-09-09T14:45:45.391Z,8.50
2022-09-09T14:48:14.126Z,8.23
2022-09-09T14:50:42.242Z,8.18
2022-09-09T14:53:12.008Z,8.00
2022-09-09T14:55:40.018Z,7.85
2022-09-09T14:58:08.206Z,8.30
2022-09-09T15:00:36.713Z,7.45
2022-09-09T15:03:04.861Z,7.88
2022-09-09T15:05:32.929Z,8.60
2022-09-09T15:08:00.997Z,7.75
2022-09-09T15:10:32.452Z,7.93
2022-09-09T15:13:00.454Z,8.02
2022-09-09T15:15:28.852Z,8.68
2022-09-09T15:17:56.908Z,8.25
2022-09-09T15:20:25.007Z,8.55
2022-09-09T15:22:53.848Z,8.95
2022-09-09T15:25:22.898Z,8.63
2022-09-09T15:27:52.229Z,8.52
2022-09-09T15:30:20.187Z,9.50
2022-09-09T15:32:48.217Z,8.20
2022-09-09T15:35:16.549Z,8.43
2022-09-09T15:37:44.490Z,8.50
2022-09-09T15:40:13.108Z,7.88
2022-09-09T15:42:41.143Z,8.60
2022-09-09T15:45:11.730Z,8.52
2022-09-09T15:47:40.388Z,8.90
2022-09-09T15:50:09.012Z,8.32
2022-09-09T15:52:36.984Z,8.15
2022-09-09T15:55:05.556Z,8.18
2022-09-09T15:57:34.108Z,8.85
2022-09-09T16:00:02.545Z,9.13
2022-09-09T16:02:32.215Z,8.65
2022-09-09T16:05:02.165Z,8.38
2022-09-09T16:07:30.127Z,9.25
2022-09-09T16:09:58.187Z,9.05
2022-09-09T16:12:26.126Z,9.80
2022-09-09T16:14:54.178Z,8.80
2022-09-09T16:17:22.191Z,9.18
2022-09-09T16:19:51.590Z,9.50
2022-09-09T16:22:19.930Z,9.00
2022-09-09T16:24:47.915Z,8.90
2022-09-09T16:27:16.200Z,8.48
2022-09-09T16:29:44.182Z,9.13
2022-09-09T16:32:12.174Z,9.50
2022-09-09T16:34:40.102Z,10.02
2022-09-09T16:37:09.558Z,9.52
2022-09-09T16:39:37.647Z,10.43
2022-09-09T16:42:06.427Z,10.27
2022-09-09T16:44:34.498Z,10.23
2022-09-09T16:47:02.533Z,11.38
2022-09-09T16:49:30.470Z,9.95
2022-09-09T16:52:00.988Z,10.85
2022-09-09T16:54:30.487Z,11.10
2022-09-09T16:56:58.575Z,10.55
2022-09-09T16:59:27.492Z,11.27
2022-09-09T17:01:55.785Z,10.90
2022-09-09T17:04:27.343Z,10.30
2022-09-09T17:06:56.911Z,11.27
2022-09-09T17:09:29.784Z,11.27
2022-09-09T17:11:59.768Z,11.70
2022-09-09T17:14:27.799Z,11.88
2022-09-09T17:16:55.810Z,11.10
2022-09-09T17:19:23.853Z,11.60
2022-09-09T17:22:16.697Z,11.45
2022-09-09T17:24:41.417Z,10.95
2022-09-09T17:27:10.756Z,10.48
2022-09-09T17:29:38.748Z,11.50
2022-09-09T17:32:08.125Z,11.73
2022-09-09T17:34:36.561Z,11.90
2022-09-09T17:37:06.919Z,12.00
2022-09-09T17:39:35.386Z,11.38
2022-09-09T17:42:03.627Z,12.88
2022-09-09T17:44:33.229Z,11.80
2022-09-09T17:47:01.709Z,12.05
2022-09-09T17:49:29.693Z,12.10
2022-09-09T17:51:58.480Z,12.93
2022-09-09T17:54:26.613Z,11.63
2022-09-09T17:56:54.597Z,11.77
2022-09-09T17:59:22.590Z,12.77
2022-09-09T18:01:53.025Z,12.50
2022-09-09T18:04:21.465Z,13.47
2022-09-09T18:06:51.246Z,13.70
2022-09-09T18:09:21.320Z,12.97
2022-09-09T18:11:54.348Z,13.53
2022-09-09T18:14:24.745Z,14.07
2022-09-09T18:16:54.718Z,14.70
2022-09-09T18:19:25.756Z,13.30
2022-09-09T18:21:57.452Z,14.00
2022-09-09T18:24:28.506Z,14.57
2022-09-09T18:26:56.484Z,14.40
2022-09-09T18:29:26.265Z,13.80
2022-09-09T18:31:56.562Z,14.37
2022-09-09T18:34:28.641Z,13.43
2022-09-09T18:36:56.873Z,14.07
2022-09-09T18:39:28.611Z,14.07
2022-09-09T18:41:58.980Z,14.03
2022-09-09T18:44:30.389Z,13.90
2022-09-09T18:47:00.328Z,14.63
2022-09-09T18:49:28.474Z,13.80
2022-09-09T18:51:57.015Z,14.83
2022-09-09T18:54:26.872Z,14.30
2022-09-09T18:56:55.355Z,13.63
2022-09-09T18:59:25.630Z,14.57
2022-09-09T19:01:55.139Z,13.83
2022-09-09T19:04:27.359Z,14.03
2022-09-09T19:06:58.222Z,13.73
2022-09-09T19:09:28.351Z,14.00
2022-09-09T19:11:56.516Z,14.10
2022-09-09T19:14:24.692Z,14.17
2022-09-09T19:16:52.760Z,13.80
2022-09-09T19:19:22.469Z,14.20
2022-09-09T19:21:52.299Z,14.03
2022-09-09T19:24:22.635Z,13.67
2022-09-09T19:26:52.250Z,14.10
2022-09-09T19:29:22.588Z,13.40
2022-09-09T19:32:29.398Z,14.03
2022-09-09T19:34:40.419Z,14.30
2022-09-09T19:37:10.259Z,13.60
2022-09-09T19:39:38.285Z,13.60
2022-09-09T19:42:06.314Z,14.43
2022-09-09T19:44:34.283Z,14.13
2022-09-09T19:47:03.076Z,14.40
2022-09-09T19:49:31.208Z,14.57
2022-09-09T19:51:59.332Z,15.63
2022-09-09T19:54:28.954Z,15.77
2022-09-09T19:56:57.023Z,15.27
2022-09-09T19:59:25.014Z,15.40
2022-09-09T20:01:53.117Z,15.67
2022-09-09T20:04:21.541Z,15.47
2022-09-09T20:06:49.614Z,16.20
2022-09-09T20:09:18.842Z,16.00
2022-09-09T20:11:49.518Z,16.83
2022-09-09T20:14:18.302Z,17.73
2022-09-09T20:16:46.722Z,16.80
2022-09-09T20:19:17.293Z,17.83
2022-09-09T20:21:48.405Z,17.60
2022-09-09T20:24:18.530Z,17.67
2022-09-09T20:26:48.967Z,17.53
2022-09-09T20:29:19.354Z,17.33
2022-09-09T20:31:47.733Z,17.83
2022-09-09T20:34:18.516Z,16.50
2022-09-09T20:36:47.140Z,18.93
2022-09-09T20:39:16.910Z,17.63
2022-09-09T20:41:47.700Z,17.60
2022-09-09T20:44:18.309Z,19.83
2022-09-09T20:46:49.042Z,18.80
2022-09-09T20:49:18.333Z,18.63
2022-09-09T20:51:46.949Z,18.43
2022-09-09T20:54:16.481Z,18.73
2022-09-09T20:56:46.439Z,19.03
2022-09-09T20:59:17.640Z,19.33
2022-09-09T21:01:47.466Z,19.80
2022-09-09T21:04:16.630Z,19.33
2022-09-09T21:06:44.763Z,20.37
2022-09-09T21:09:12.843Z,20.17
2022-09-09T21:11:40.910Z,20.57
2022-09-09T21:14:09.045Z,19.77
2022-09-09T21:16:38.429Z,19.90
2022-09-09T21:19:06.805Z,20.00
2022-09-09T21:21:36.220Z,19.00
2022-09-09T21:24:04.698Z,19.67
2022-09-09T21:26:32.701Z,21.10
2022-09-09T21:29:00.802Z,21.37
2022-09-09T21:31:29.043Z,19.30
2022-09-09T21:33:59.085Z,20.80
2022-09-09T21:36:28.166Z,21.57
2022-09-09T21:38:56.801Z,21.20
2022-09-09T21:41:24.881Z,21.13
2022-09-09T21:43:54.574Z,22.17
2022-09-09T21:46:26.471Z,22.33
2022-09-09T21:48:56.416Z,22.77
2022-09-09T21:51:26.203Z,21.83
2022-09-09T21:53:56.373Z,23.60
2022-09-09T21:56:24.704Z,22.67
2022-09-09T21:58:55.927Z,23.47
2022-09-09T22:01:26.279Z,22.03
2022-09-09T22:03:54.461Z,22.17
2022-09-09T22:06:22.474Z,24.40
2022-09-09T22:08:51.847Z,23.73
2022-09-09T22:11:22.261Z,24.43
2022-09-09T22:13:50.396Z,22.67
2022-09-09T22:16:20.573Z,22.23
2022-09-09T22:18:53.472Z,23.73
2022-09-09T22:21:22.101Z,24.10
2022-09-09T22:23:55.487Z,23.90
2022-09-09T22:26:24.071Z,23.63
2022-09-09T22:28:53.904Z,24.57
2022-09-09T22:31:22.834Z,24.03
2022-09-09T22:33:51.793Z,24.63
2022-09-09T22:36:20.045Z,24.37
2022-09-09T22:38:48.091Z,24.43
2022-09-09T22:41:18.890Z,24.47
2022-09-09T22:43:47.460Z,24.33
2022-09-09T22:46:16.598Z,23.93
2022-09-09T22:48:44.865Z,24.17
2022-09-09T22:51:14.867Z,24.60
2022-09-09T22:53:44.634Z,24.33
2022-09-09T22:56:17.141Z,24.03
2022-09-09T22:58:47.415Z,23.43
2022-09-09T23:01:19.275Z,24.10
2022-09-09T23:03:47.581Z,23.50
2022-09-09T23:06:22.375Z,23.17
2022-09-09T23:08:53.707Z,22.23
2022-09-09T23:11:21.739Z,23.13
2022-09-09T23:13:53.094Z,23.37
2022-09-09T23:16:22.782Z,24.43
2022-09-09T23:18:52.181Z,23.53
2022-09-09T23:21:20.739Z,23.80
2022-09-09T23:23:48.943Z,22.70
2022-09-09T23:26:20.947Z,22.73
2022-09-09T23:28:51.937Z,22.03
2022-09-09T23:31:22.757Z,23.23
2022-09-09T23:33:50.832Z,23.73
2022-09-09T23:36:21.973Z,24.20
2022-09-09T23:38:50.419Z,23.53
2022-09-09T23:41:21.136Z,22.80
2022-09-09T23:43:52.322Z,23.77
2022-09-09T23:46:22.939Z,23.30
2022-09-09T23:48:52.147Z,23.73
2022-09-09T23:51:23.827Z,21.73
2022-09-09T23:53:53.925Z,22.73
2022-09-09T23:56:23.115Z,22.97
2022-09-09T23:58:54.598Z,22.10
